| Date | Time | Temp. (oF) | Dew Point (oF) | Rel. Hum. (%) | Press. (in.) | Wind Dir. | Wind Speed (mph) | Hourly Rainfall (in.) |
|
|---|---|---|---|---|---|---|---|---|---|
| 1 | 04/02 | 00:00 | 39 | 30 | 71 | 30.08 | NNW | 0 | 0.00 |
| 2 | 04/01 | 23:00 | 41 | 29 | 64 | 30.08 | NW | 0 | 0.00 |
| 3 | 04/01 | 22:00 | 43 | 28 | 56 | 30.07 | S | 1 | 0.00 |
| 4 | 04/01 | 21:00 | 46 | 28 | 50 | 30.04 | NW | 2 | 0.00 |
| 5 | 04/01 | 20:00 | 47 | 28 | 48 | 30.02 | WNW | 4 | 0.00 |
| 6 | 04/01 | 19:00 | 49 | 27 | 44 | 29.98 | W | 6 | 0.00 |
| 7 | 04/01 | 18:00 | 51 | 28 | 42 | 29.95 | WSW | 7 | 0.00 |
| 8 | 04/01 | 17:00 | 53 | 28 | 39 | 29.92 | SW | 8 | 0.00 |
| 9 | 04/01 | 16:00 | 55 | 30 | 39 | 29.91 | W | 10 | 0.00 |
| 10 | 04/01 | 15:00 | 54 | 28 | 37 | 29.91 | W | 14 | 0.00 |
| 11 | 04/01 | 14:00 | 55 | 32 | 42 | 29.90 | W | 11 | 0.00 |
| 12 | 04/01 | 13:00 | 55 | 34 | 46 | 29.90 | W | 12 | 0.00 |
| 13 | 04/01 | 12:00 | 54 | 33 | 45 | 29.88 | SSW | 9 | 0.00 |
| 14 | 04/01 | 11:00 | 54 | 33 | 45 | 29.88 | WNW | 18 | 0.00 |
| 15 | 04/01 | 10:00 | 53 | 38 | 57 | 29.87 | WSW | 6 | 0.00 |
| 16 | 04/01 | 09:00 | 50 | 43 | 79 | 29.85 | W | 11 | 0.00 |
| 17 | 04/01 | 08:00 | 49 | 46 | 91 | 29.85 | S | 7 | 0.00 |
| 18 | 04/01 | 07:00 | 45 | 44 | 99 | 29.83 | SSW | 3 | 0.00 |
| 19 | 04/01 | 06:00 | 44 | 44 | 100 | 29.82 | W | 2 | 0.00 |
| 20 | 04/01 | 05:00 | 45 | 45 | 100 | 29.80 | SW | 3 | 0.00 |
| 21 | 04/01 | 04:00 | 45 | 45 | 100 | 29.80 | SSW | 3 | 0.00 |
| 22 | 04/01 | 03:00 | 45 | 45 | 100 | 29.79 | WNW | 2 | 0.00 |
| 23 | 04/01 | 02:00 | 46 | 45 | 100 | 29.82 | W | 4 | 0.00 |
| 24 | 04/01 | 01:00 | 46 | 45 | 100 | 29.84 | NW | 0 | 0.00 |